Санаторий Энергетик

Санаторий Энергетик

Начало Дней Корпус Мест в номере Категория Цена
санатория
Цена
sanbel.ru
1 02.11.2018 12 1,2,3 2 2-местный номер 1718 1718
2 05.11.2018 12 2,1 2 2-местный 1718 1718
3 08.11.2018 12 6 2 2-местный стандарт 1610 1610
4 10.11.2018 14 4,5,7 1 одноместный номер 2147 2147
5 10.11.2018 14 4,7,8 2 2-х местный "стандарт" 1825 1825
6 14.11.2018 12 1,2,3 2 2-местный номер 1718 1718
7 17.11.2018 12 2,1 2 2-местный 1718 1718
8 20.11.2018 12 6 2 2-местный стандарт 1610 1610
9 24.11.2018 14 4,5,7 1 одноместный номер 2147 2147
10 24.11.2018 14 4,7,8 2 2-х местный "стандарт" 1825 1825
11 26.11.2018 12 1,2,3 2 2-местный номер 1718 1718
12 29.11.2018 12 2,1 2 2-местный 1718 1718
- Нажмите на дату, чтобы оставить заявку!
- Все цены в российских рублях с человека в сутки

На нашем сайте можно оставить заявки по следующим путевкам:

Начало Дней Корпус Мест в номере Категория Цена
санатория
Цена
sanbel.ru
1 02.12.2018 12 6 2 2-местный стандарт 1610 1610
2 08.12.2018 12 1,2,3 2 2-местный номер 1718 1718
3 08.12.2018 14 4,5,7 1 одноместный номер 2147 2147
4 08.12.2018 10 4,7,8 2 2-х местный "стандарт" 1825 1825
5 11.12.2018 16 2,1 2 2-местный 1718 1718
6 14.12.2018 12 6 2 2-местный стандарт 1610 1610
7 18.12.2018 10 4,7,8 2 2-х местный "стандарт" 1825 1825
8 20.12.2018 10 1,2,3 2 2-местный номер 1718 1718
9 22.12.2018 7 4,5,7 1 одноместный номер 2147 2147
10 08.01.2019 10 4,5,7 1 одноместный номер 2362 2362
11 09.01.2019 10 1,2,3 2 2-местный номер 1890 1890
12 16.01.2019 10 2,1 2 2-местный 1890 1890
13 18.01.2019 10 4,5,7 1 одноместный номер 2362 2362
14 19.01.2019 10 1,2,3 2 2-местный номер 1890 1890
15 19.01.2019 12 4,7,8 2 2-х местный "стандарт" 2008 2008
16 19.01.2019 12 6 2 2-местный стандарт 1772 1772
17 26.01.2019 10 2,1 2 2-местный 1890 1890
18 28.01.2019 10 4,5,7 1 одноместный номер 2362 2362
19 29.01.2019 10 1,2,3 2 2-местный номер 1890 1890
20 31.01.2019 12 4,7,8 2 2-х местный "стандарт" 2008 2008
21 31.01.2019 12 6 2 2-местный стандарт 1772 1772
22 05.02.2019 10 2,1 2 2-местный 1890 1890
23 07.02.2019 10 4,5,7 1 одноместный номер 2362 2362
24 08.02.2019 10 1,2,3 2 2-местный номер 1890 1890
25 12.02.2019 12 4,7,8 2 2-х местный "стандарт" 2008 2008
26 12.02.2019 12 6 2 2-местный стандарт 1772 1772
27 15.02.2019 10 2,1 2 2-местный 1890 1890
28 17.02.2019 10 4,5,7 1 одноместный номер 2362 2362
29 18.02.2019 14 1,2,3 2 2-местный номер 1890 1890
30 24.02.2019 12 4,7,8 2 2-х местный "стандарт" 2008 2008
31 24.02.2019 12 6 2 2-местный стандарт 1772 1772
32 25.02.2019 10 2,1 2 2-местный 1890 1890
33 27.02.2019 10 4,5,7 1 одноместный номер 2362 2362
34 04.03.2019 14 1,2,3 2 2-местный номер 1890 1890
35 07.03.2019 10 2,1 2 2-местный 1890 1890
36 08.03.2019 12 4,7,8 2 2-х местный "стандарт" 2008 2008
37 08.03.2019 12 6 2 2-местный стандарт 1772 1772
38 09.03.2019 10 4,5,7 1 одноместный номер 2362 2362
39 17.03.2019 10 2,1 2 2-местный 1890 1890
40 18.03.2019 14 1,2,3 2 2-местный номер 1890 1890
41 19.03.2019 10 4,5,7 1 одноместный номер 2362 2362
42 20.03.2019 12 4,7,8 2 2-х местный "стандарт" 2008 2008
43 20.03.2019 12 6 2 2-местный стандарт 1772 1772
44 27.03.2019 10 2,1 2 2-местный 1890 1890
45 29.03.2019 10 4,5,7 1 одноместный номер 2362 2362
46 01.04.2019 14 1,2,3 2 2-местный номер 1890 1890
47 01.04.2019 12 4,7,8 2 2-х местный "стандарт" 2008 2008
48 01.04.2019 12 6 2 2-местный стандарт 1772 1772
49 06.04.2019 10 2,1 2 2-местный 1890 1890
50 08.04.2019 10 4,5,7 1 одноместный номер 2362 2362
51 13.04.2019 12 4,7,8 2 2-х местный "стандарт" 2008 2008
52 13.04.2019 12 6 2 2-местный стандарт 1772 1772
53 15.04.2019 14 1,2,3 2 2-местный номер 1890 1890
54 16.04.2019 10 2,1 2 2-местный 1890 1890
55 18.04.2019 10 4,5,7 1 одноместный номер 2362 2362
56 25.04.2019 12 4,7,8 2 2-х местный "стандарт" 2008 2008
57 25.04.2019 12 6 2 2-местный стандарт 1772 1772
58 26.04.2019 10 2,1 2 2-местный 1890 1890
59 28.04.2019 10 4,5,7 1 одноместный номер 2362 2362
60 29.04.2019 14 1,2,3 2 2-местный номер 1890 1890
61 06.05.2019 10 2,1 2 2-местный 1890 1890
62 07.05.2019 12 4,7,8 2 2-х местный "стандарт" 2008 2008
63 07.05.2019 12 6 2 2-местный стандарт 1772 1772
64 08.05.2019 10 4,5,7 1 одноместный номер 2362 2362
65 13.05.2019 14 1,2,3 2 2-местный номер 1890 1890
66 16.05.2019 10 2,1 2 2-местный 1890 1890
67 18.05.2019 10 4,5,7 1 одноместный номер 2362 2362
68 19.05.2019 12 4,7,8 2 2-х местный "стандарт" 2008 2008
69 19.05.2019 12 6 2 2-местный стандарт 1772 1772
- Нажмите на дату, чтобы оставить заявку!
- Все цены в российских рублях с человека в сутки

Отзывы:

Елена
Добрый день, Дарья! Спасибо большое Вам за рекомендацию отправиться на отдых именно в санаторий "Энергетик". Маме очень понравилось. И воздух, и природа и благоустроенность территории, и расположение корпусов в санатории. Особенно мама была приятно удивлена серьезной лечебно-профилактической ...
23.10.2018
Ольга
Добрый день! Огромное Вам спасибо!, что посоветовали съездить именно в этот санаторий "Энергетик". С погодой повезло, окунулась в "бархатный сезон". Природа просто сказочная, кругом лес сосновый. Мой номер был в новом корпусе, комната уютная с балконом. В номере было все необходимое ...
19.09.2018
Мария
Здравствуйте, Людмила! Много раз думали, как нам повезло, что в последнюю минуту освободилось место именно в этом санатории, и что Вы нам его посоветовали. Всё очень-очень понравилось. Территория отличная, ухоженная, номер чистый - убирали каждый день, всё в номере было (хотя нам ...
10.09.2018
Оставьте свой отзыв!

Если вы отдыхали в этом санатории, и вам есть чем поделиться, пожалуйста,
оставьте свой отзыв! Оставить отзыв

   Санаторий Энергетик расположен в Волковысском районе Гродненской области Республики Беларусь в живописном сосновом бору на берегу красивейшего Волпянского водохранилища. Лесной массив богат грибами, черникой, малиной, земляникой. Водохранилище - множеством сортов рыбы.

Номерной фонд

  В настоящее время для размещения отдыхающих санаторий располагает 8 спальными корпусами и 10 коттеджами в двух уровнях (комфортабельные номера разных категорий: одно- и двухместные, одноместные двухкомнатные, одно- и двухместные улучшенные, одно- и двухместные полулюксы, люксы). В каждом номере отдельный санузел, душевая или ванна. Все номера оснащены современной бытовой техникой, подключены к системе кабельного телевидения.

Инфраструктура

  В 1999 году в санатории "Энергетик" введён физкультурно-оздоровительный комплекс. В его составе: два бассейна (детский и взрослый), спортивный и тренажёрные залы, бильярды с 12-фунтовыми столами, пункт проката велосипедов, катамаранов, лыж. В спортивном зале отдыхающие могут поиграть в волейбол, баскетбол, мини-футбол, ручной мяч, настольный теннис. На берегу Волпянского водохранилища расположена лодочная станция (катание на лодках и водных велосипедах). К услугам отдыхающих киноконцертный зал, баня-сауна, библиотека, бар, магазин. На территории санатория работает салон красоты, филиал АСБ «Беларусбанк», отделение почтовой связи.

Питание

Столовая санатория «Энергетик» расположена в отдельном здании столовой на 2 этаже. Обеденные залы: — 3 зал на 300. Банкетные залы: — 1 зал на 12 мест.Питание диетическое, заказное меню. Питание отдыхающих осуществляется в одну смену.

Лечение

   Лечебная база санатория представлена современными лечебным, физкультурно-оздоровительным и грязелечебным корпусами, соединёнными  между собой.Грязелечебный корпус начал функционировать в 2005 году. В нем имеется 11 грязелечебных кушеток с подогревом. Лечебная грязь завозится с озера Дикое Дятловского района.Пребывание в санатории пойдет на пользу в первую очередь тем, кто страдает заболеваниями сердечно-сосудистой и нервной системы, а также нарушением работы опорно-двигательного аппарата.
В основе курортной терапии лежит благоприятный климат и лечебные грязи. Малая скорость ветра, невысокая влажность и умеренно теплая температура воздуха делают санаторий Энергетик практически идеальным местом для полноценного лечения и отдыха.
В воздухе наблюдается повышенное содержание кислорода и большое количество летучих ароматических веществ, которые обладают протистоцидным, седативным, фунгицидным и бактерицидным действием.
Прогулки по лесу способствуют углублению дыхания, что улучшает легочную вентиляцию и усиливает тканевое дыхание.
Как проехать:
Автобусом или поездом до г. Мосты, далее от железнодорожного вокзала г. Мосты производится доставка отдыхающих транспортом санатория. В дни заездов движение транспорта осуществляется по графику.
Проезд в санаторий на личном транспорте
Из г. Минска по Раковском шоссе ч/з г. Лиду, г. Щучин, г. Мосты.

Подробнее>>

Адрес: Беларусь, Гродненская область, Волковысский р-н, д.Ковали
Телефоны: +7(921)9464870; +7(812)6468008
Email:

Профили лечения

Процедуры